createdAt,value
2018-03-28T00:00:23.451Z,35.37
2018-03-28T00:02:50.985Z,41.00
2018-03-28T00:05:19.307Z,37.80
2018-03-28T00:07:46.917Z,37.20
2018-03-28T00:10:14.444Z,40.00
2018-03-28T00:12:42.702Z,39.43
2018-03-28T00:15:10.945Z,40.53
2018-03-28T00:17:40.259Z,41.07
2018-03-28T00:20:07.857Z,41.57
2018-03-28T00:22:35.378Z,39.40
2018-03-28T00:25:03.004Z,44.40
2018-03-28T00:27:30.650Z,45.17
2018-03-28T00:29:58.172Z,42.80
2018-03-28T00:32:25.681Z,41.03
2018-03-28T00:34:54.314Z,42.93
2018-03-28T00:37:22.306Z,40.20
2018-03-28T00:39:49.819Z,41.90
2018-03-28T00:42:18.104Z,40.20
2018-03-28T00:44:46.390Z,40.33
2018-03-28T00:47:15.464Z,41.10
2018-03-28T00:49:43.761Z,42.07
2018-03-28T00:52:11.313Z,39.63
2018-03-28T00:54:38.841Z,45.17
2018-03-28T00:57:06.374Z,39.13
2018-03-28T00:59:33.882Z,42.53
2018-03-28T01:02:02.165Z,43.90
2018-03-28T01:04:30.461Z,42.40
2018-03-28T01:06:57.980Z,45.07
2018-03-28T01:09:25.583Z,44.83
2018-03-28T01:11:53.098Z,41.93
2018-03-28T01:14:20.640Z,42.93
2018-03-28T01:16:48.154Z,46.83
2018-03-28T01:19:16.097Z,48.30
2018-03-28T01:21:44.467Z,49.97
2018-03-28T01:24:11.981Z,46.33
2018-03-28T01:26:39.570Z,44.47
2018-03-28T01:29:07.245Z,44.07
2018-03-28T01:31:35.050Z,46.77
2018-03-28T01:34:02.567Z,45.27
2018-03-28T01:36:30.079Z,44.03
2018-03-28T01:38:57.608Z,44.63
2018-03-28T01:41:25.881Z,47.37
2018-03-28T01:43:54.981Z,42.83
2018-03-28T01:46:23.300Z,45.00
2018-03-28T01:48:51.459Z,44.87
2018-03-28T01:51:18.972Z,45.30
2018-03-28T01:53:47.201Z,43.43
2018-03-28T01:56:14.746Z,39.47
2018-03-28T02:11:46.164Z,41.90
2018-03-28T02:14:14.439Z,41.77
2018-03-28T02:16:41.950Z,41.30
2018-03-28T02:19:09.706Z,40.93
2018-03-28T02:21:37.239Z,40.90
2018-03-28T02:24:05.525Z,39.37
2018-03-28T02:26:33.055Z,38.57
2018-03-28T02:29:00.569Z,40.00
2018-03-28T02:31:28.100Z,40.13
2018-03-28T02:33:55.613Z,40.70
2018-03-28T02:36:27.909Z,39.77
2018-03-28T02:38:57.506Z,42.50
2018-03-28T02:41:25.040Z,39.67
2018-03-28T02:43:52.574Z,38.53
2018-03-28T02:46:20.138Z,39.63
2018-03-28T02:48:47.710Z,39.40
2018-03-28T02:51:15.228Z,41.07
2018-03-28T02:53:44.320Z,40.17
2018-03-28T02:56:12.604Z,40.80
2018-03-28T02:58:41.493Z,39.23
2018-03-28T03:01:09.184Z,38.17
2018-03-28T03:13:26.725Z,36.50
2018-03-28T03:15:54.647Z,39.20
2018-03-28T03:18:22.156Z,41.13
2018-03-28T03:20:49.657Z,37.87
2018-03-28T03:23:17.177Z,38.00
2018-03-28T03:25:45.518Z,36.17
2018-03-28T03:28:13.068Z,39.50
2018-03-28T03:30:40.601Z,35.37
2018-03-28T03:33:08.161Z,37.07
2018-03-28T03:35:35.693Z,36.00
2018-03-28T03:38:03.193Z,37.77
2018-03-28T03:40:30.721Z,37.90
2018-03-28T03:42:59.001Z,37.47
2018-03-28T03:45:27.335Z,36.53
2018-03-28T03:47:54.852Z,39.53
2018-03-28T03:50:22.380Z,35.97
2018-03-28T03:52:49.994Z,35.53
2018-03-28T03:55:17.677Z,39.43
2018-03-28T03:57:45.816Z,37.40
2018-03-28T04:00:13.364Z,37.83
2018-03-28T04:02:42.242Z,35.93
2018-03-28T04:05:10.525Z,36.53
2018-03-28T04:07:38.097Z,34.77
2018-03-28T04:10:05.620Z,38.90
2018-03-28T04:12:37.244Z,34.90
2018-03-28T04:15:04.761Z,38.73
2018-03-28T04:17:33.045Z,35.03
2018-03-28T04:20:01.319Z,36.40
2018-03-28T04:22:29.600Z,36.23
2018-03-28T04:24:57.897Z,36.23
2018-03-28T04:27:25.419Z,32.57
2018-03-28T04:29:53.708Z,36.63
2018-03-28T04:32:21.976Z,33.27
2018-03-28T04:34:50.265Z,33.30
2018-03-28T04:37:22.538Z,32.60
2018-03-28T04:39:50.073Z,31.80
2018-03-28T04:42:17.593Z,33.63
2018-03-28T04:44:45.105Z,35.63
2018-03-28T04:47:13.394Z,33.43
2018-03-28T04:49:40.893Z,31.53
2018-03-28T04:52:08.421Z,34.20
2018-03-28T04:54:35.957Z,35.93
2018-03-28T04:57:04.228Z,35.00
2018-03-28T04:59:33.536Z,35.10
2018-03-28T05:02:01.840Z,35.90
2018-03-28T05:04:29.358Z,35.67
2018-03-28T05:06:56.970Z,38.90
2018-03-28T05:09:24.524Z,35.13
2018-03-28T05:11:52.770Z,38.97
2018-03-28T05:14:21.040Z,35.50
2018-03-28T05:16:49.327Z,37.73
2018-03-28T05:19:17.611Z,38.60
2018-03-28T05:21:45.131Z,35.80
2018-03-28T05:24:12.661Z,38.37
2018-03-28T05:26:40.185Z,35.70
2018-03-28T05:29:07.712Z,37.23
2018-03-28T05:31:35.229Z,35.17
2018-03-28T05:34:02.744Z,32.23
2018-03-28T05:36:30.712Z,33.07
2018-03-28T05:38:59.582Z,34.83
2018-03-28T05:41:27.749Z,34.97
2018-03-28T05:43:55.691Z,31.57
2018-03-28T05:46:23.900Z,35.53
2018-03-28T05:48:51.410Z,31.90
2018-03-28T05:51:18.932Z,33.67
2018-03-28T05:53:47.337Z,31.33
2018-03-28T05:56:15.652Z,32.53
2018-03-28T05:58:43.170Z,36.10
2018-03-28T06:01:12.078Z,33.63
2018-03-28T06:03:39.589Z,34.20
2018-03-28T06:06:07.186Z,31.27
2018-03-28T06:08:35.475Z,30.67
2018-03-28T06:11:02.992Z,31.77
2018-03-28T06:13:30.990Z,34.40
2018-03-28T06:15:59.283Z,30.07
2018-03-28T06:18:30.633Z,31.20
2018-03-28T06:21:02.109Z,31.30
2018-03-28T06:23:30.233Z,31.10
2018-03-28T06:25:58.511Z,32.13
2018-03-28T06:28:27.605Z,32.37
2018-03-28T06:30:55.889Z,31.57
2018-03-28T06:33:24.174Z,32.40
2018-03-28T06:35:52.816Z,33.67
2018-03-28T06:38:20.455Z,29.50
2018-03-28T06:40:48.092Z,31.70
2018-03-28T06:43:15.680Z,34.80
2018-03-28T06:45:43.350Z,30.10
2018-03-28T06:48:10.860Z,30.90
2018-03-28T06:50:39.141Z,34.40
2018-03-28T06:53:06.684Z,34.13
2018-03-28T06:55:34.981Z,33.10
2018-03-28T06:58:03.278Z,32.30
2018-03-28T07:00:34.468Z,33.20
2018-03-28T07:03:01.995Z,36.10
2018-03-28T07:05:33.401Z,35.40
2018-03-28T07:08:01.714Z,34.93
2018-03-28T07:10:29.220Z,38.37
2018-03-28T07:12:56.749Z,32.93
2018-03-28T07:15:28.247Z,32.37
2018-03-28T07:17:56.583Z,34.17
2018-03-28T07:20:31.895Z,34.67
2018-03-28T07:23:00.050Z,32.83
2018-03-28T07:25:28.684Z,37.63
2018-03-28T07:27:56.255Z,33.20
2018-03-28T07:30:24.661Z,36.47
2018-03-28T07:32:52.971Z,35.10
2018-03-28T07:35:21.449Z,37.33
2018-03-28T07:37:49.566Z,33.37
2018-03-28T07:40:17.112Z,34.03
2018-03-28T07:42:44.636Z,35.77
2018-03-28T07:45:12.466Z,37.27
2018-03-28T07:47:40.095Z,35.87
2018-03-28T07:50:08.378Z,38.33
2018-03-28T07:52:35.912Z,35.17
2018-03-28T07:55:03.795Z,40.27
2018-03-28T07:57:31.362Z,36.43
2018-03-28T07:59:58.890Z,36.87
2018-03-28T08:02:27.183Z,34.00
2018-03-28T08:04:55.529Z,34.43
2018-03-28T08:07:23.871Z,41.80
2018-03-28T08:09:51.928Z,34.37
2018-03-28T08:12:23.734Z,36.27
2018-03-28T08:14:52.047Z,37.30
2018-03-28T08:17:23.276Z,38.50
2018-03-28T08:29:41.603Z,42.57
2018-03-28T08:32:09.134Z,44.43
2018-03-28T08:34:37.877Z,44.50
2018-03-28T08:37:05.544Z,45.70
2018-03-28T08:39:33.385Z,47.17
2018-03-28T08:42:01.599Z,49.40
2018-03-28T08:44:29.143Z,46.53
2018-03-28T08:47:00.315Z,44.93
2018-03-28T08:49:28.622Z,50.93
2018-03-28T08:52:01.048Z,46.03
2018-03-28T08:54:28.564Z,51.20
2018-03-28T09:06:41.117Z,46.03
2018-03-28T09:09:09.426Z,49.60
2018-03-28T09:11:37.090Z,42.20
2018-03-28T09:14:05.174Z,45.77
2018-03-28T09:16:32.743Z,42.63
2018-03-28T09:19:00.301Z,46.53
2018-03-28T09:21:28.190Z,43.50
2018-03-28T09:24:00.123Z,41.33
2018-03-28T09:26:29.310Z,44.87
2018-03-28T09:28:56.876Z,40.47
2018-03-28T09:31:25.564Z,44.33
2018-03-28T09:33:53.101Z,44.60
2018-03-28T09:36:21.612Z,42.40
2018-03-28T09:38:49.994Z,42.33
2018-03-28T09:41:17.536Z,41.83
2018-03-28T09:43:45.140Z,46.13
2018-03-28T09:46:12.678Z,42.93
2018-03-28T09:48:40.210Z,41.70
2018-03-28T09:51:07.757Z,44.87
2018-03-28T09:53:36.045Z,44.53
2018-03-28T09:56:03.660Z,44.53
2018-03-28T09:58:31.222Z,46.80
2018-03-28T10:01:04.679Z,48.53
2018-03-28T10:03:32.980Z,43.53
2018-03-28T10:06:01.090Z,44.90
2018-03-28T10:08:29.402Z,46.53
2018-03-28T10:10:56.991Z,45.87
2018-03-28T10:13:25.942Z,49.00
2018-03-28T10:15:54.266Z,47.03
2018-03-28T10:18:21.833Z,45.50
2018-03-28T10:20:49.371Z,50.80
2018-03-28T10:23:17.907Z,53.37
2018-03-28T10:25:45.395Z,47.77
2018-03-28T10:28:13.066Z,51.53
2018-03-28T10:30:41.170Z,53.03
2018-03-28T10:33:08.846Z,49.97
2018-03-28T10:35:36.494Z,47.27
2018-03-28T10:38:04.826Z,44.57
2018-03-28T10:40:32.978Z,46.77
2018-03-28T10:43:01.306Z,49.17
2018-03-28T10:45:29.680Z,43.60
2018-03-28T10:47:57.278Z,45.00
2018-03-28T10:50:24.878Z,47.63
2018-03-28T10:52:56.493Z,50.20
2018-03-28T10:55:24.560Z,43.93
2018-03-28T10:57:52.355Z,52.30
2018-03-28T11:00:20.650Z,47.77
2018-03-28T11:02:48.634Z,55.43
2018-03-28T11:05:16.186Z,48.53
2018-03-28T11:07:43.915Z,47.53
2018-03-28T11:10:11.745Z,49.30
2018-03-28T11:12:39.346Z,51.97
2018-03-28T11:15:08.654Z,48.00
2018-03-28T11:17:36.937Z,44.87
2018-03-28T11:20:04.485Z,47.93
2018-03-28T11:22:32.110Z,50.43
2018-03-28T11:24:59.642Z,44.00
2018-03-28T11:27:27.172Z,50.97
2018-03-28T11:29:55.550Z,44.40
2018-03-28T11:32:23.870Z,43.67
2018-03-28T11:34:51.505Z,51.53
2018-03-28T11:37:19.028Z,46.10
2018-03-28T11:39:48.076Z,44.13
2018-03-28T11:42:15.622Z,43.53
2018-03-28T11:44:43.152Z,44.67
2018-03-28T11:47:11.515Z,42.37
2018-03-28T11:49:39.097Z,46.73
2018-03-28T11:52:07.409Z,46.83
2018-03-28T11:54:34.944Z,46.47
2018-03-28T11:57:03.255Z,44.03
2018-03-28T11:59:30.802Z,43.97
2018-03-28T12:01:58.339Z,45.30
2018-03-28T12:04:26.683Z,42.87
2018-03-28T12:06:54.250Z,41.43
2018-03-28T12:09:21.831Z,45.27
2018-03-28T12:11:50.140Z,40.80
2018-03-28T12:14:17.745Z,40.83
2018-03-28T12:16:45.284Z,40.37
2018-03-28T12:19:12.838Z,43.10
2018-03-28T12:21:40.885Z,44.77
2018-03-28T12:24:08.437Z,38.60
2018-03-28T12:26:35.966Z,43.90
2018-03-28T12:29:03.586Z,43.43
2018-03-28T12:31:31.851Z,46.57
2018-03-28T12:33:59.376Z,44.57
2018-03-28T12:36:27.691Z,39.73
2018-03-28T12:38:55.994Z,44.27
2018-03-28T12:41:23.533Z,47.67
2018-03-28T12:43:51.089Z,41.57
2018-03-28T12:46:18.621Z,45.00
2018-03-28T12:48:46.926Z,42.17
2018-03-28T12:51:14.471Z,41.17
2018-03-28T12:53:42.030Z,40.20
2018-03-28T12:56:09.613Z,41.70
2018-03-28T12:58:37.172Z,41.00
2018-03-28T13:01:04.686Z,42.20
2018-03-28T13:03:33.010Z,42.67
2018-03-28T13:06:00.548Z,43.77
2018-03-28T13:08:28.103Z,44.03
2018-03-28T13:10:55.657Z,42.47
2018-03-28T13:13:23.956Z,42.83
2018-03-28T13:15:51.510Z,44.53
2018-03-28T13:18:19.070Z,47.20
2018-03-28T13:20:46.602Z,46.93
2018-03-28T13:23:14.879Z,44.23
2018-03-28T13:25:43.190Z,44.70
2018-03-28T13:28:10.713Z,47.40
2018-03-28T13:30:39.104Z,47.60
2018-03-28T13:33:07.425Z,42.87
2018-03-28T13:35:34.963Z,41.80
2018-03-28T13:38:02.492Z,41.33
2018-03-28T13:40:30.785Z,45.80
2018-03-28T13:42:58.342Z,42.87
2018-03-28T13:45:25.858Z,43.73
2018-03-28T13:47:53.421Z,41.77
2018-03-28T13:50:20.966Z,40.63
2018-03-28T13:52:48.478Z,48.20
2018-03-28T13:55:16.165Z,43.10
2018-03-28T13:57:43.734Z,43.40
2018-03-28T14:00:11.297Z,43.90
2018-03-28T14:02:38.867Z,40.40
2018-03-28T14:05:06.410Z,41.97
2018-03-28T14:07:34.003Z,40.30
2018-03-28T14:10:01.557Z,39.57
2018-03-28T14:12:29.124Z,40.70
2018-03-28T14:14:56.688Z,40.33
2018-03-28T14:17:24.290Z,37.67
2018-03-28T14:19:51.849Z,39.93
2018-03-28T14:22:19.440Z,41.13
2018-03-28T14:24:46.965Z,37.17
2018-03-28T14:27:15.283Z,36.37
2018-03-28T14:29:42.820Z,34.60
2018-03-28T14:32:10.363Z,36.20
2018-03-28T14:34:37.903Z,32.43
2018-03-28T14:37:06.184Z,34.93
2018-03-28T14:39:34.603Z,31.67
2018-03-28T14:42:02.145Z,35.27
2018-03-28T14:44:29.702Z,34.93
2018-03-28T14:46:57.270Z,33.33
2018-03-28T14:49:24.799Z,37.03
2018-03-28T14:51:53.116Z,39.50
2018-03-28T14:54:20.633Z,41.97
2018-03-28T14:56:48.170Z,39.27
2018-03-28T14:59:15.706Z,39.97
2018-03-28T15:01:43.259Z,42.10
2018-03-28T15:04:10.793Z,42.77
2018-03-28T15:06:38.361Z,44.23
2018-03-28T15:09:07.718Z,45.80
2018-03-28T15:11:35.684Z,46.07
2018-03-28T15:14:03.255Z,44.00
2018-03-28T15:16:30.771Z,47.93
2018-03-28T15:18:58.312Z,48.80
2018-03-28T15:21:25.835Z,47.73
2018-03-28T15:23:53.406Z,45.43
2018-03-28T15:26:21.746Z,46.20
2018-03-28T15:28:49.292Z,49.00
2018-03-28T15:31:16.857Z,47.63
2018-03-28T15:33:44.383Z,46.30
2018-03-28T15:36:11.964Z,51.63
2018-03-28T15:38:39.542Z,44.77
2018-03-28T15:41:07.116Z,46.67
2018-03-28T15:43:34.645Z,50.03
2018-03-28T15:46:02.220Z,48.67
2018-03-28T15:48:29.764Z,51.87
2018-03-28T15:50:57.990Z,50.77
2018-03-28T15:53:25.530Z,53.50
2018-03-28T15:55:53.066Z,50.33
2018-03-28T15:58:20.618Z,52.83
2018-03-28T16:00:48.175Z,47.47
2018-03-28T16:03:15.726Z,48.77
2018-03-28T16:05:43.272Z,49.17
2018-03-28T16:08:11.584Z,51.40
2018-03-28T16:10:39.129Z,49.87
2018-03-28T16:13:06.685Z,47.20
2018-03-28T16:15:34.236Z,52.13
2018-03-28T16:18:02.447Z,54.87
2018-03-28T16:20:29.972Z,49.20
2018-03-28T16:22:57.500Z,51.63
2018-03-28T16:25:25.038Z,55.43
2018-03-28T16:27:53.515Z,47.50
2018-03-28T16:30:24.974Z,47.73
2018-03-28T16:32:52.511Z,51.53
2018-03-28T16:35:20.029Z,50.40
2018-03-28T16:37:48.317Z,47.60
2018-03-28T16:40:16.579Z,46.73
2018-03-28T16:42:45.299Z,49.77
2018-03-28T16:45:12.818Z,53.10
2018-03-28T16:47:41.125Z,53.17
2018-03-28T16:50:08.665Z,49.90
2018-03-28T16:52:40.125Z,52.53
2018-03-28T16:55:09.367Z,55.43
2018-03-28T16:57:36.926Z,51.50
2018-03-28T17:00:04.895Z,53.07
2018-03-28T17:02:32.858Z,49.63
2018-03-28T17:05:00.922Z,54.53
2018-03-28T17:07:28.489Z,48.10
2018-03-28T17:22:56.833Z,54.87
2018-03-28T17:25:24.389Z,53.73
2018-03-28T17:27:51.978Z,48.27
2018-03-28T17:30:19.542Z,49.37
2018-03-28T17:32:47.770Z,46.00
2018-03-28T17:35:20.045Z,46.80
2018-03-28T17:37:52.358Z,46.43
2018-03-28T17:40:20.849Z,42.37
2018-03-28T17:42:52.274Z,43.50
2018-03-28T17:45:19.805Z,46.47
2018-03-28T17:47:48.030Z,41.43
2018-03-28T17:50:15.563Z,40.33
2018-03-28T17:52:43.092Z,41.73
2018-03-28T17:55:11.421Z,41.63
2018-03-28T17:57:38.998Z,45.07
2018-03-28T18:00:07.196Z,42.53
2018-03-28T18:02:35.875Z,46.83
2018-03-28T18:18:08.406Z,40.23
2018-03-28T18:20:35.959Z,38.40
2018-03-28T18:23:07.427Z,45.23
2018-03-28T18:25:35.065Z,38.27
2018-03-28T18:28:11.051Z,37.33
2018-03-28T18:30:38.566Z,42.57
2018-03-28T18:33:07.438Z,40.87
2018-03-28T18:35:40.112Z,40.63
2018-03-28T18:38:07.653Z,40.60
2018-03-28T18:53:36.007Z,45.83
2018-03-28T18:56:06.333Z,50.30
2018-03-28T18:58:33.889Z,50.57
2018-03-28T19:01:01.427Z,46.40
2018-03-28T19:03:33.001Z,50.07
2018-03-28T19:06:01.517Z,53.50
2018-03-28T19:08:29.071Z,46.97
2018-03-28T19:20:43.959Z,57.13
2018-03-28T19:23:11.501Z,59.27
2018-03-28T19:25:39.047Z,56.63
2018-03-28T19:28:10.800Z,56.10
2018-03-28T19:30:44.680Z,56.77
2018-03-28T19:33:12.517Z,57.90
2018-03-28T19:35:40.128Z,58.10
2018-03-28T19:38:09.616Z,60.13
2018-03-28T19:40:38.591Z,60.67
2018-03-28T19:43:06.245Z,59.03
2018-03-28T19:45:49.240Z,57.63
2018-03-28T19:48:16.798Z,52.07
2018-03-28T19:50:44.325Z,52.63
2018-03-28T19:53:12.500Z,49.03
2018-03-28T19:55:40.081Z,47.47
2018-03-28T19:58:08.143Z,41.73
2018-03-28T20:00:36.606Z,42.23
2018-03-28T20:03:04.317Z,40.20
2018-03-28T20:05:32.322Z,45.27
2018-03-28T20:08:00.177Z,47.10
2018-03-28T20:10:27.698Z,51.27
2018-03-28T20:12:56.630Z,51.50
2018-03-28T20:15:28.018Z,53.20
2018-03-28T20:17:55.862Z,56.83
2018-03-28T20:20:26.830Z,58.63
2018-03-28T20:22:54.384Z,59.97
2018-03-28T20:25:22.542Z,58.27
2018-03-28T20:27:50.309Z,56.73
2018-03-28T20:30:17.853Z,60.47
2018-03-28T20:32:45.394Z,60.60
2018-03-28T20:35:19.145Z,61.33
2018-03-28T20:37:46.685Z,65.67
2018-03-28T20:40:14.574Z,64.87
2018-03-28T20:42:42.267Z,67.70
2018-03-28T20:45:09.823Z,65.33
2018-03-28T20:47:38.103Z,73.60
2018-03-28T20:50:06.448Z,69.03
2018-03-28T20:52:40.389Z,73.33
2018-03-28T21:02:03.528Z,60.77
2018-03-28T21:07:24.259Z,61.57
2018-03-28T21:09:51.855Z,61.83
2018-03-28T21:12:20.166Z,63.57
2018-03-28T21:24:35.332Z,71.00
2018-03-28T21:27:10.958Z,63.10
2018-03-28T21:29:38.522Z,61.43
2018-03-28T21:32:06.074Z,58.10
2018-03-28T21:34:53.151Z,56.73
2018-03-28T21:37:24.643Z,55.20
2018-03-28T21:39:52.210Z,55.37
2018-03-28T21:42:20.791Z,53.23
2018-03-28T21:44:48.718Z,51.33
2018-03-28T21:47:16.226Z,50.17
2018-03-28T21:49:44.475Z,44.93
2018-03-28T21:52:16.237Z,46.93
2018-03-28T21:54:43.780Z,47.10
2018-03-28T21:57:12.932Z,46.13
2018-03-28T21:59:40.452Z,46.90
2018-03-28T22:02:16.026Z,47.43
2018-03-28T22:04:44.566Z,52.97
2018-03-28T22:07:13.522Z,44.87
2018-03-28T22:09:41.044Z,42.13
2018-03-28T22:12:12.574Z,38.90
2018-03-28T22:14:40.866Z,44.53
2018-03-28T22:17:08.971Z,41.43
2018-03-28T22:19:36.589Z,41.23
2018-03-28T22:22:04.877Z,41.50
2018-03-28T22:24:33.233Z,45.40
2018-03-28T22:27:00.753Z,43.07
2018-03-28T22:29:28.289Z,40.00
2018-03-28T22:31:59.878Z,38.43
2018-03-28T22:34:27.424Z,39.70
2018-03-28T22:36:54.947Z,33.27
2018-03-28T22:39:23.559Z,35.60
2018-03-28T22:41:51.158Z,37.53
2018-03-28T22:44:18.726Z,34.43
2018-03-28T22:46:46.259Z,26.20
2018-03-28T22:49:13.797Z,25.20
2018-03-28T22:51:41.341Z,28.63
2018-03-28T22:54:09.314Z,24.43
2018-03-28T22:56:36.831Z,24.27
2018-03-28T22:59:04.365Z,24.23
2018-03-28T23:01:32.478Z,22.37
2018-03-28T23:04:03.376Z,23.47
2018-03-28T23:06:30.894Z,24.63
2018-03-28T23:08:59.712Z,24.87
2018-03-28T23:24:27.274Z,27.17
2018-03-28T23:26:55.826Z,20.00
2018-03-28T23:29:23.350Z,19.17
2018-03-28T23:31:50.889Z,13.00
2018-03-28T23:34:18.430Z,13.40
2018-03-28T23:36:46.727Z,13.63
2018-03-28T23:39:14.257Z,11.63
2018-03-28T23:41:41.777Z,12.87
2018-03-28T23:44:14.297Z,13.00
2018-03-28T23:46:41.919Z,14.00
2018-03-28T23:49:10.201Z,13.00
2018-03-28T23:51:39.074Z,14.07
2018-03-28T23:54:11.655Z,14.23
